sensor_id;sensor_type;location;lat;lon;timestamp;pressure;altitude;pressure_sealevel;temperature;humidity
20630;BME280;17386;43.846;25.950;2023-11-19T00:02:13;101111.59;;;6.97;100.00
20630;BME280;17386;43.846;25.950;2023-11-19T00:04:39;101107.16;;;7.00;100.00
20630;BME280;17386;43.846;25.950;2023-11-19T00:07:05;101108.88;;;7.03;100.00
20630;BME280;17386;43.846;25.950;2023-11-19T00:09:32;101107.13;;;7.02;100.00
20630;BME280;17386;43.846;25.950;2023-11-19T00:11:58;101118.53;;;7.04;100.00
20630;BME280;17386;43.846;25.950;2023-11-19T00:14:25;101114.13;;;7.04;100.00
20630;BME280;17386;43.846;25.950;2023-11-19T00:16:51;101117.63;;;7.05;100.00
20630;BME280;17386;43.846;25.950;2023-11-19T00:19:16;101114.09;;;7.06;100.00
20630;BME280;17386;43.846;25.950;2023-11-19T00:21:42;101108.91;;;7.00;100.00
20630;BME280;17386;43.846;25.950;2023-11-19T00:24:08;101113.44;;;6.93;100.00
20630;BME280;17386;43.846;25.950;2023-11-19T00:26:33;101108.09;;;6.96;100.00
20630;BME280;17386;43.846;25.950;2023-11-19T00:28:59;101104.59;;;6.94;100.00
20630;BME280;17386;43.846;25.950;2023-11-19T00:31:24;101119.47;;;7.00;100.00
20630;BME280;17386;43.846;25.950;2023-11-19T00:33:53;101107.19;;;6.97;100.00
20630;BME280;17386;43.846;25.950;2023-11-19T00:36:18;101125.69;;;6.97;100.00
20630;BME280;17386;43.846;25.950;2023-11-19T00:38:44;101108.97;;;6.97;100.00
20630;BME280;17386;43.846;25.950;2023-11-19T00:41:10;101116.78;;;7.03;100.00
20630;BME280;17386;43.846;25.950;2023-11-19T00:43:35;101115.09;;;6.99;100.00
20630;BME280;17386;43.846;25.950;2023-11-19T00:46:01;101119.47;;;7.00;100.00
20630;BME280;17386;43.846;25.950;2023-11-19T00:48:27;101103.75;;;6.94;100.00
20630;BME280;17386;43.846;25.950;2023-11-19T00:50:53;101114.22;;;6.98;100.00
20630;BME280;17386;43.846;25.950;2023-11-19T00:53:18;101118.63;;;6.98;100.00
20630;BME280;17386;43.846;25.950;2023-11-19T00:55:44;101107.16;;;6.99;100.00
20630;BME280;17386;43.846;25.950;2023-11-19T00:58:09;101105.38;;;7.01;100.00
20630;BME280;17386;43.846;25.950;2023-11-19T01:00:35;101107.16;;;7.00;100.00
20630;BME280;17386;43.846;25.950;2023-11-19T01:03:00;101100.09;;;6.99;100.00
20630;BME280;17386;43.846;25.950;2023-11-19T01:05:26;101106.25;;;7.01;100.00
20630;BME280;17386;43.846;25.950;2023-11-19T01:07:52;101100.94;;;7.03;100.00
20630;BME280;17386;43.846;25.950;2023-11-19T01:10:19;101111.47;;;7.04;100.00
20630;BME280;17386;43.846;25.950;2023-11-19T01:12:45;101110.63;;;7.04;100.00
20630;BME280;17386;43.846;25.950;2023-11-19T01:15:10;101105.38;;;7.01;100.00
20630;BME280;17386;43.846;25.950;2023-11-19T01:17:39;101113.31;;;7.01;100.00
20630;BME280;17386;43.846;25.950;2023-11-19T01:20:05;101114.19;;;7.01;100.00
20630;BME280;17386;43.846;25.950;2023-11-19T01:22:32;101115.03;;;7.03;100.00
20630;BME280;17386;43.846;25.950;2023-11-19T01:24:57;101115.91;;;7.04;100.00
20630;BME280;17386;43.846;25.950;2023-11-19T01:27:24;101122.06;;;7.04;100.00
20630;BME280;17386;43.846;25.950;2023-11-19T01:29:49;101120.25;;;7.06;100.00
20630;BME280;17386;43.846;25.950;2023-11-19T01:32:15;101118.47;;;7.08;100.00
20630;BME280;17386;43.846;25.950;2023-11-19T01:34:41;101117.63;;;7.05;100.00
20630;BME280;17386;43.846;25.950;2023-11-19T01:37:06;101129.97;;;7.04;100.00
20630;BME280;17386;43.846;25.950;2023-11-19T01:39:34;101121.25;;;7.01;100.00
20630;BME280;17386;43.846;25.950;2023-11-19T01:41:59;101130.94;;;7.00;100.00
20630;BME280;17386;43.846;25.950;2023-11-19T01:44:25;101122.94;;;7.03;100.00
20630;BME280;17386;43.846;25.950;2023-11-19T01:46:50;101115.09;;;7.00;100.00
20630;BME280;17386;43.846;25.950;2023-11-19T01:49:17;101116.88;;;6.97;100.00
20630;BME280;17386;43.846;25.950;2023-11-19T01:51:43;101117.81;;;6.94;100.00
20630;BME280;17386;43.846;25.950;2023-11-19T01:54:09;101120.44;;;6.93;100.00
20630;BME280;17386;43.846;25.950;2023-11-19T01:56:35;101116.91;;;6.95;100.00
20630;BME280;17386;43.846;25.950;2023-11-19T01:59:02;101100.25;;;6.90;100.00
20630;BME280;17386;43.846;25.950;2023-11-19T02:01:29;101105.50;;;6.93;100.00
20630;BME280;17386;43.846;25.950;2023-11-19T02:03:55;101105.56;;;6.89;100.00
20630;BME280;17386;43.846;25.950;2023-11-19T02:06:20;101109.09;;;6.88;100.00
20630;BME280;17386;43.846;25.950;2023-11-19T02:08:46;101110.00;;;6.85;100.00
20630;BME280;17386;43.846;25.950;2023-11-19T02:11:12;101101.22;;;6.84;100.00
20630;BME280;17386;43.846;25.950;2023-11-19T02:13:38;101108.25;;;6.84;100.00
20630;BME280;17386;43.846;25.950;2023-11-19T02:16:03;101108.34;;;6.79;100.00
20630;BME280;17386;43.846;25.950;2023-11-19T02:18:29;101112.72;;;6.79;100.00
20630;BME280;17386;43.846;25.950;2023-11-19T02:20:56;101115.38;;;6.79;100.00
20630;BME280;17386;43.846;25.950;2023-11-19T02:23:22;101124.19;;;6.79;100.00
20630;BME280;17386;43.846;25.950;2023-11-19T02:26:17;101120.59;;;6.83;100.00
20630;BME280;17386;43.846;25.950;2023-11-19T02:28:45;101108.34;;;6.78;100.00
20630;BME280;17386;43.846;25.950;2023-11-19T02:31:11;101099.53;;;6.80;100.00
20630;BME280;17386;43.846;25.950;2023-11-19T02:33:39;101110.91;;;6.84;100.00
20630;BME280;17386;43.846;25.950;2023-11-19T02:36:06;101085.47;;;6.80;100.00
20630;BME280;17386;43.846;25.950;2023-11-19T02:38:35;101109.09;;;6.88;100.00
20630;BME280;17386;43.846;25.950;2023-11-19T02:41:04;101107.34;;;6.88;100.00
20630;BME280;17386;43.846;25.950;2023-11-19T02:43:34;101109.09;;;6.88;100.00
20630;BME280;17386;43.846;25.950;2023-11-19T02:46:03;101108.22;;;6.89;100.00
20630;BME280;17386;43.846;25.950;2023-11-19T02:48:33;101112.56;;;6.91;100.00
20630;BME280;17386;43.846;25.950;2023-11-19T02:51:00;101103.75;;;6.91;100.00
20630;BME280;17386;43.846;25.950;2023-11-19T02:53:26;101109.97;;;6.88;100.00
20630;BME280;17386;43.846;25.950;2023-11-19T02:55:54;101105.56;;;6.89;100.00
20630;BME280;17386;43.846;25.950;2023-11-19T02:58:27;101091.53;;;6.83;100.00
20630;BME280;17386;43.846;25.950;2023-11-19T03:00:53;101113.50;;;6.85;100.00
20630;BME280;17386;43.846;25.950;2023-11-19T03:03:23;101110.09;;;6.80;100.00
20630;BME280;17386;43.846;25.950;2023-11-19T03:05:53;101124.19;;;6.78;100.00
20630;BME280;17386;43.846;25.950;2023-11-19T03:08:19;101120.66;;;6.79;100.00
20630;BME280;17386;43.846;25.950;2023-11-19T03:10:45;101121.53;;;6.81;100.00
20630;BME280;17386;43.846;25.950;2023-11-19T03:13:11;101121.56;;;6.79;100.00
20630;BME280;17386;43.846;25.950;2023-11-19T03:15:41;101126.00;;;6.76;100.00
20630;BME280;17386;43.846;25.950;2023-11-19T03:18:07;101134.75;;;6.79;100.00
20630;BME280;17386;43.846;25.950;2023-11-19T03:20:32;101125.06;;;6.80;100.00
20630;BME280;17386;43.846;25.950;2023-11-19T03:22:58;101118.88;;;6.81;100.00
20630;BME280;17386;43.846;25.950;2023-11-19T03:25:25;101117.97;;;6.82;100.00
20630;BME280;17386;43.846;25.950;2023-11-19T03:27:59;101119.88;;;6.74;100.00
20630;BME280;17386;43.846;25.950;2023-11-19T03:30:26;101119.91;;;6.69;100.00
20630;BME280;17386;43.846;25.950;2023-11-19T03:32:51;101122.63;;;6.66;100.00
20630;BME280;17386;43.846;25.950;2023-11-19T03:35:16;101113.03;;;6.59;100.00
20630;BME280;17386;43.846;25.950;2023-11-19T03:37:42;101111.25;;;6.60;100.00
20630;BME280;17386;43.846;25.950;2023-11-19T03:40:08;101106.97;;;6.52;100.00
20630;BME280;17386;43.846;25.950;2023-11-19T03:42:34;101133.38;;;6.49;100.00
20630;BME280;17386;43.846;25.950;2023-11-19T03:44:59;101129.16;;;6.35;100.00
20630;BME280;17386;43.846;25.950;2023-11-19T03:47:25;101131.72;;;6.42;100.00
20630;BME280;17386;43.846;25.950;2023-11-19T03:49:51;101150.16;;;6.44;100.00
20630;BME280;17386;43.846;25.950;2023-11-19T03:52:18;101158.91;;;6.49;100.00
20630;BME280;17386;43.846;25.950;2023-11-19T03:54:44;101160.75;;;6.41;100.00
20630;BME280;17386;43.846;25.950;2023-11-19T03:57:11;101170.50;;;6.36;100.00
20630;BME280;17386;43.846;25.950;2023-11-19T03:59:37;101174.81;;;6.43;100.00
20630;BME280;17386;43.846;25.950;2023-11-19T04:02:02;101171.19;;;6.50;100.00
20630;BME280;17386;43.846;25.950;2023-11-19T04:04:28;101180.00;;;6.52;100.00
20630;BME280;17386;43.846;25.950;2023-11-19T04:06:55;101161.59;;;6.44;100.00
20630;BME280;17386;43.846;25.950;2023-11-19T04:09:20;101191.31;;;6.58;100.00
20630;BME280;17386;43.846;25.950;2023-11-19T04:11:46;101184.28;;;6.61;100.00
20630;BME280;17386;43.846;25.950;2023-11-19T04:14:14;101194.81;;;6.62;100.00
20630;BME280;17386;43.846;25.950;2023-11-19T04:16:40;101187.75;;;6.63;100.00
20630;BME280;17386;43.846;25.950;2023-11-19T04:19:05;101186.03;;;6.60;100.00
20630;BME280;17386;43.846;25.950;2023-11-19T04:21:32;101199.16;;;6.65;100.00
20630;BME280;17386;43.846;25.950;2023-11-19T04:23:58;101198.31;;;6.66;100.00
20630;BME280;17386;43.846;25.950;2023-11-19T04:26:24;101204.47;;;6.63;100.00
20630;BME280;17386;43.846;25.950;2023-11-19T04:28:49;101194.81;;;6.62;100.00
20630;BME280;17386;43.846;25.950;2023-11-19T04:31:15;101215.84;;;6.70;100.00
20630;BME280;17386;43.846;25.950;2023-11-19T04:33:44;101217.59;;;6.71;100.00
20630;BME280;17386;43.846;25.950;2023-11-19T04:36:12;101215.09;;;6.60;100.00
20630;BME280;17386;43.846;25.950;2023-11-19T04:38:39;101219.50;;;6.60;100.00
20630;BME280;17386;43.846;25.950;2023-11-19T04:41:05;101214.16;;;6.66;100.00
20630;BME280;17386;43.846;25.950;2023-11-19T04:43:32;101216.69;;;6.72;100.00
20630;BME280;17386;43.846;25.950;2023-11-19T04:45:57;101218.44;;;6.74;100.00
20630;BME280;17386;43.846;25.950;2023-11-19T04:48:23;101221.00;;;6.79;100.00
20630;BME280;17386;43.846;25.950;2023-11-19T04:50:49;101212.22;;;6.80;100.00
20630;BME280;17386;43.846;25.950;2023-11-19T04:53:16;101220.03;;;6.88;100.00
20630;BME280;17386;43.846;25.950;2023-11-19T04:55:42;101232.34;;;6.85;100.00
20630;BME280;17386;43.846;25.950;2023-11-19T04:58:07;101238.50;;;6.89;100.00
20630;BME280;17386;43.846;25.950;2023-11-19T05:00:33;101241.13;;;6.89;100.00
20630;BME280;17386;43.846;25.950;2023-11-19T05:02:58;101246.44;;;6.88;100.00
20630;BME280;17386;43.846;25.950;2023-11-19T05:05:24;101245.56;;;6.85;100.00
20630;BME280;17386;43.846;25.950;2023-11-19T05:07:49;101243.78;;;6.89;100.00
20630;BME280;17386;43.846;25.950;2023-11-19T05:10:14;101236.72;;;6.90;100.00
20630;BME280;17386;43.846;25.950;2023-11-19T05:12:40;101243.69;;;6.95;100.00
20630;BME280;17386;43.846;25.950;2023-11-19T05:15:06;101247.19;;;6.97;100.00
20630;BME280;17386;43.846;25.950;2023-11-19T05:17:32;101250.69;;;7.01;100.00
20630;BME280;17386;43.846;25.950;2023-11-19T05:19:57;101249.78;;;7.02;100.00
20630;BME280;17386;43.846;25.950;2023-11-19T05:22:23;101254.09;;;7.06;100.00
20630;BME280;17386;43.846;25.950;2023-11-19T05:24:48;101254.09;;;7.06;100.00
20630;BME280;17386;43.846;25.950;2023-11-19T05:27:14;101248.84;;;7.04;100.00
20630;BME280;17386;43.846;25.950;2023-11-19T05:29:40;101261.16;;;7.07;100.00
20630;BME280;17386;43.846;25.950;2023-11-19T05:32:07;101269.09;;;7.07;100.00
20630;BME280;17386;43.846;25.950;2023-11-19T05:34:32;101269.06;;;7.08;100.00
20630;BME280;17386;43.846;25.950;2023-11-19T05:36:57;101277.84;;;7.10;100.00
20630;BME280;17386;43.846;25.950;2023-11-19T05:39:23;101274.34;;;7.08;100.00
20630;BME280;17386;43.846;25.950;2023-11-19T05:41:49;101281.34;;;7.14;100.00
20630;BME280;17386;43.846;25.950;2023-11-19T05:44:14;101290.09;;;7.16;100.00
20630;BME280;17386;43.846;25.950;2023-11-19T05:46:40;101293.63;;;7.17;100.00
20630;BME280;17386;43.846;25.950;2023-11-19T05:49:11;101295.34;;;7.19;100.00
20630;BME280;17386;43.846;25.950;2023-11-19T05:51:37;101300.59;;;7.22;100.00
20630;BME280;17386;43.846;25.950;2023-11-19T05:54:06;101299.69;;;7.23;100.00
20630;BME280;17386;43.846;25.950;2023-11-19T05:56:32;101299.72;;;7.22;100.00
20630;BME280;17386;43.846;25.950;2023-11-19T05:58:58;101303.16;;;7.27;100.00
20630;BME280;17386;43.846;25.950;2023-11-19T06:01:26;101296.09;;;7.29;100.00
20630;BME280;17386;43.846;25.950;2023-11-19T06:03:52;101292.53;;;7.31;100.00
20630;BME280;17386;43.846;25.950;2023-11-19T06:06:18;101288.19;;;7.26;100.00
20630;BME280;17386;43.846;25.950;2023-11-19T06:08:44;101289.06;;;7.29;100.00
20630;BME280;17386;43.846;25.950;2023-11-19T06:11:10;101282.91;;;7.29;100.00
20630;BME280;17386;43.846;25.950;2023-11-19T06:13:40;101286.44;;;7.26;100.00
20630;BME280;17386;43.846;25.950;2023-11-19T06:16:05;101284.69;;;7.25;100.00
20630;BME280;17386;43.846;25.950;2023-11-19T06:18:31;101289.22;;;7.16;100.00
20630;BME280;17386;43.846;25.950;2023-11-19T06:20:56;101288.31;;;7.18;100.00
20630;BME280;17386;43.846;25.950;2023-11-19T06:23:22;101284.75;;;7.22;100.00
20630;BME280;17386;43.846;25.950;2023-11-19T06:25:47;101284.75;;;7.22;100.00
20630;BME280;17386;43.846;25.950;2023-11-19T06:28:13;101287.34;;;7.24;100.00
20630;BME280;17386;43.846;25.950;2023-11-19T06:30:38;101293.47;;;7.29;100.00
20630;BME280;17386;43.846;25.950;2023-11-19T06:33:04;101295.19;;;7.31;100.00
20630;BME280;17386;43.846;25.950;2023-11-19T06:35:32;101288.94;;;7.37;100.00
20630;BME280;17386;43.846;25.950;2023-11-19T06:38:04;101279.25;;;7.37;100.00
20630;BME280;17386;43.846;25.950;2023-11-19T06:40:30;101274.91;;;7.32;100.00
20630;BME280;17386;43.846;25.950;2023-11-19T06:42:56;101276.53;;;7.40;100.00
20630;BME280;17386;43.846;25.950;2023-11-19T06:45:22;101283.56;;;7.43;100.00
20630;BME280;17386;43.846;25.950;2023-11-19T06:47:47;101299.34;;;7.49;100.00
20630;BME280;17386;43.846;25.950;2023-11-19T06:50:13;101289.56;;;7.54;100.00
20630;BME280;17386;43.846;25.950;2023-11-19T06:52:38;101294.78;;;7.59;100.00
20630;BME280;17386;43.846;25.950;2023-11-19T06:55:04;101310.56;;;7.65;100.00
20630;BME280;17386;43.846;25.950;2023-11-19T06:57:30;101312.34;;;7.64;100.00
20630;BME280;17386;43.846;25.950;2023-11-19T06:59:57;101312.34;;;7.64;100.00
20630;BME280;17386;43.846;25.950;2023-11-19T07:02:24;101323.91;;;7.57;100.00
20630;BME280;17386;43.846;25.950;2023-11-19T07:04:50;101322.19;;;7.53;100.00
20630;BME280;17386;43.846;25.950;2023-11-19T07:07:15;101316.94;;;7.52;100.00
20630;BME280;17386;43.846;25.950;2023-11-19T07:09:41;101325.03;;;7.39;100.00
20630;BME280;17386;43.846;25.950;2023-11-19T07:12:06;101333.09;;;7.27;100.00
20630;BME280;17386;43.846;25.950;2023-11-19T07:14:32;101336.88;;;7.06;100.00
20630;BME280;17386;43.846;25.950;2023-11-19T07:16:57;101344.88;;;7.02;100.00
20630;BME280;17386;43.846;25.950;2023-11-19T07:19:23;101355.63;;;6.87;100.00
20630;BME280;17386;43.846;25.950;2023-11-19T07:21:48;101350.38;;;6.82;100.00
20630;BME280;17386;43.846;25.950;2023-11-19T07:24:14;101368.97;;;6.73;100.00
20630;BME280;17386;43.846;25.950;2023-11-19T07:26:43;101368.00;;;6.81;100.00
20630;BME280;17386;43.846;25.950;2023-11-19T07:29:09;101369.03;;;6.67;100.00
20630;BME280;17386;43.846;25.950;2023-11-19T07:31:35;101367.19;;;6.75;100.00
20630;BME280;17386;43.846;25.950;2023-11-19T07:34:01;101380.28;;;6.84;100.00
20630;BME280;17386;43.846;25.950;2023-11-19T07:36:26;101382.03;;;6.83;100.00
20630;BME280;17386;43.846;25.950;2023-11-19T07:38:51;101370.78;;;6.65;100.00
20630;BME280;17386;43.846;25.950;2023-11-19T07:41:18;101363.66;;;6.74;100.00
20630;BME280;17386;43.846;25.950;2023-11-19T07:43:45;101368.16;;;6.66;100.00
20630;BME280;17386;43.846;25.950;2023-11-19T07:46:12;101374.50;;;6.45;100.00
20630;BME280;17386;43.846;25.950;2023-11-19T07:48:38;101377.25;;;6.28;100.00
20630;BME280;17386;43.846;25.950;2023-11-19T07:51:07;101368.56;;;6.16;100.00
20630;BME280;17386;43.846;25.950;2023-11-19T07:53:33;101380.66;;;6.46;100.00
20630;BME280;17386;43.846;25.950;2023-11-19T07:55:58;101385.91;;;6.49;100.00
20630;BME280;17386;43.846;25.950;2023-11-19T07:58:27;101392.13;;;6.37;100.00
20630;BME280;17386;43.846;25.950;2023-11-19T08:00:52;101398.25;;;6.44;100.00
20630;BME280;17386;43.846;25.950;2023-11-19T08:03:20;101399.09;;;6.52;100.00
20630;BME280;17386;43.846;25.950;2023-11-19T08:05:47;101402.50;;;6.62;100.00
20630;BME280;17386;43.846;25.950;2023-11-19T08:08:13;101388.31;;;6.73;100.00
20630;BME280;17386;43.846;25.950;2023-11-19T08:10:38;101383.00;;;6.79;100.00
20630;BME280;17386;43.846;25.950;2023-11-19T08:13:05;101394.38;;;6.83;100.00
20630;BME280;17386;43.846;25.950;2023-11-19T08:15:30;101391.75;;;6.81;100.00
20630;BME280;17386;43.846;25.950;2023-11-19T08:17:55;101385.53;;;6.85;100.00
20630;BME280;17386;43.846;25.950;2023-11-19T08:20:22;101367.84;;;6.95;100.00
20630;BME280;17386;43.846;25.950;2023-11-19T08:22:47;101387.91;;;7.15;100.00
20630;BME280;17386;43.846;25.950;2023-11-19T08:25:13;101383.41;;;7.21;100.00
20630;BME280;17386;43.846;25.950;2023-11-19T08:27:38;101373.44;;;7.43;100.00
20630;BME280;17386;43.846;25.950;2023-11-19T08:30:05;101381.31;;;7.49;100.00
20630;BME280;17386;43.846;25.950;2023-11-19T08:32:31;101388.97;;;7.67;100.00
20630;BME280;17386;43.846;25.950;2023-11-19T08:34:57;101397.53;;;7.86;100.00
20630;BME280;17386;43.846;25.950;2023-11-19T08:37:22;101397.03;;;8.21;100.00
20630;BME280;17386;43.846;25.950;2023-11-19T08:39:48;101403.91;;;8.33;100.00
20630;BME280;17386;43.846;25.950;2023-11-19T08:42:14;101405.31;;;8.57;100.00
20630;BME280;17386;43.846;25.950;2023-11-19T08:44:40;101388.81;;;8.91;100.00
20630;BME280;17386;43.846;25.950;2023-11-19T08:47:08;101398.13;;;9.12;100.00
20630;BME280;17386;43.846;25.950;2023-11-19T08:49:34;101399.28;;;8.98;100.00
20630;BME280;17386;43.846;25.950;2023-11-19T08:52:00;101398.88;;;9.20;100.00
20630;BME280;17386;43.846;25.950;2023-11-19T08:54:25;101399.66;;;9.25;100.00
20630;BME280;17386;43.846;25.950;2023-11-19T08:56:51;101398.63;;;9.32;100.00
20630;BME280;17386;43.846;25.950;2023-11-19T08:59:16;101390.34;;;9.49;100.00
20630;BME280;17386;43.846;25.950;2023-11-19T09:01:41;101395.47;;;9.56;100.00
20630;BME280;17386;43.846;25.950;2023-11-19T09:04:07;101385.81;;;9.09;99.16
20630;BME280;17386;43.846;25.950;2023-11-19T09:06:33;101390.19;;;9.12;99.88
20630;BME280;17386;43.846;25.950;2023-11-19T09:08:58;101378.06;;;8.98;100.00
20630;BME280;17386;43.846;25.950;2023-11-19T09:11:27;101369.97;;;9.08;100.00
20630;BME280;17386;43.846;25.950;2023-11-19T09:13:53;101374.28;;;9.13;100.00
20630;BME280;17386;43.846;25.950;2023-11-19T09:16:18;101358.34;;;9.15;100.00
20630;BME280;17386;43.846;25.950;2023-11-19T09:18:44;101362.56;;;9.23;100.00
20630;BME280;17386;43.846;25.950;2023-11-19T09:21:12;101359.41;;;9.04;99.79
20630;BME280;17386;43.846;25.950;2023-11-19T09:23:38;101354.97;;;9.05;100.00
20630;BME280;17386;43.846;25.950;2023-11-19T09:26:08;101352.81;;;9.25;100.00
20630;BME280;17386;43.846;25.950;2023-11-19T09:28:35;101355.28;;;9.35;99.96
20630;BME280;17386;43.846;25.950;2023-11-19T09:31:01;101353.75;;;9.65;99.88
20630;BME280;17386;43.846;25.950;2023-11-19T09:33:29;101361.44;;;9.77;97.45
20630;BME280;17386;43.846;25.950;2023-11-19T09:35:55;101347.91;;;9.89;96.29
20630;BME280;17386;43.846;25.950;2023-11-19T09:38:20;101349.03;;;10.16;95.12
20630;BME280;17386;43.846;25.950;2023-11-19T09:40:46;101348.13;;;10.53;92.55
20630;BME280;17386;43.846;25.950;2023-11-19T09:43:14;101342.91;;;10.82;90.47
20630;BME280;17386;43.846;25.950;2023-11-19T09:45:48;101342.09;;;11.11;90.10
20630;BME280;17386;43.846;25.950;2023-11-19T09:48:17;101348.63;;;11.62;84.85
20630;BME280;17386;43.846;25.950;2023-11-19T09:50:45;101339.19;;;12.09;84.81
20630;BME280;17386;43.846;25.950;2023-11-19T09:53:12;101342.16;;;11.41;80.33
20630;BME280;17386;43.846;25.950;2023-11-19T09:55:41;101344.66;;;11.45;81.90
20630;BME280;17386;43.846;25.950;2023-11-19T09:58:07;101342.03;;;11.44;82.02
20630;BME280;17386;43.846;25.950;2023-11-19T10:00:33;101338.31;;;11.81;84.06
20630;BME280;17386;43.846;25.950;2023-11-19T10:02:59;101337.41;;;12.35;79.63
20630;BME280;17386;43.846;25.950;2023-11-19T10:05:25;101338.84;;;12.71;77.50
20630;BME280;17386;43.846;25.950;2023-11-19T10:07:52;101338.66;;;12.51;79.05
20630;BME280;17386;43.846;25.950;2023-11-19T10:10:17;101342.44;;;12.95;78.00
20630;BME280;17386;43.846;25.950;2023-11-19T10:12:47;101337.78;;;12.50;78.39
20630;BME280;17386;43.846;25.950;2023-11-19T10:15:22;101334.78;;;11.78;80.86
20630;BME280;17386;43.846;25.950;2023-11-19T10:17:50;101325.03;;;12.33;81.45
20630;BME280;17386;43.846;25.950;2023-11-19T10:20:15;101326.47;;;12.69;79.98
20630;BME280;17386;43.846;25.950;2023-11-19T10:22:41;101323.94;;;12.66;77.72
20630;BME280;17386;43.846;25.950;2023-11-19T10:25:26;101317.75;;;13.13;78.96
20630;BME280;17386;43.846;25.950;2023-11-19T10:27:53;101329.69;;;13.03;74.64
20630;BME280;17386;43.846;25.950;2023-11-19T10:30:23;101309.69;;;12.92;76.32
20630;BME280;17386;43.846;25.950;2023-11-19T10:33:08;101315.94;;;12.66;77.36
20630;BME280;17386;43.846;25.950;2023-11-19T10:35:56;101313.50;;;12.33;76.92
20630;BME280;17386;43.846;25.950;2023-11-19T10:38:24;101276.25;;;12.05;78.59
20630;BME280;17386;43.846;25.950;2023-11-19T10:40:51;101296.25;;;12.70;78.08
20630;BME280;17386;43.846;25.950;2023-11-19T10:43:17;101295.16;;;13.24;76.79
20630;BME280;17386;43.846;25.950;2023-11-19T10:45:43;101305.78;;;12.77;73.37
20630;BME280;17386;43.846;25.950;2023-11-19T10:48:09;101312.13;;;12.73;76.17
20630;BME280;17386;43.846;25.950;2023-11-19T10:50:40;101302.41;;;13.44;72.96
20630;BME280;17386;43.846;25.950;2023-11-19T10:53:08;101291.16;;;13.81;71.27
20630;BME280;17386;43.846;25.950;2023-11-19T10:55:35;101295.38;;;13.64;72.32
20630;BME280;17386;43.846;25.950;2023-11-19T10:58:08;101295.94;;;13.02;72.30
20630;BME280;17386;43.846;25.950;2023-11-19T11:00:51;101293.75;;;13.38;72.30
20630;BME280;17386;43.846;25.950;2023-11-19T11:03:19;101310.34;;;12.73;73.70
20630;BME280;17386;43.846;25.950;2023-11-19T11:05:49;101300.94;;;12.63;75.15
20630;BME280;17386;43.846;25.950;2023-11-19T11:08:15;101307.81;;;12.44;76.62
20630;BME280;17386;43.846;25.950;2023-11-19T11:10:46;101311.69;;;12.07;75.55
20630;BME280;17386;43.846;25.950;2023-11-19T11:13:13;101305.28;;;11.86;74.99
20630;BME280;17386;43.846;25.950;2023-11-19T11:15:39;101294.91;;;11.77;75.19
20630;BME280;17386;43.846;25.950;2023-11-19T11:18:08;101276.41;;;11.44;76.98
20630;BME280;17386;43.846;25.950;2023-11-19T11:20:34;101272.53;;;11.27;77.59
20630;BME280;17386;43.846;25.950;2023-11-19T11:28:33;101271.03;;;11.46;80.62
20630;BME280;17386;43.846;25.950;2023-11-19T11:36:48;101256.00;;;10.86;84.46
20630;BME280;17386;43.846;25.950;2023-11-19T11:39:21;101256.16;;;10.80;82.94
20630;BME280;17386;43.846;25.950;2023-11-19T11:41:47;101260.44;;;10.85;81.93
20630;BME280;17386;43.846;25.950;2023-11-19T11:44:12;101269.25;;;10.87;83.21
20630;BME280;17386;43.846;25.950;2023-11-19T11:49:04;101263.72;;;10.62;85.57
20630;BME280;17386;43.846;25.950;2023-11-19T11:54:09;101260.50;;;10.51;84.67
20630;BME280;17386;43.846;25.950;2023-11-19T11:56:38;101271.66;;;10.31;86.25
20630;BME280;17386;43.846;25.950;2023-11-19T11:59:07;101265.34;;;10.35;88.15
20630;BME280;17386;43.846;25.950;2023-11-19T12:01:33;101258.34;;;10.33;88.03
20630;BME280;17386;43.846;25.950;2023-11-19T12:03:58;101267.47;;;10.23;86.46
20630;BME280;17386;43.846;25.950;2023-11-19T12:06:24;101269.16;;;10.25;87.42
20630;BME280;17386;43.846;25.950;2023-11-19T12:08:52;101256.63;;;10.30;86.71
20630;BME280;17386;43.846;25.950;2023-11-19T12:11:17;101266.72;;;10.16;84.97
20630;BME280;17386;43.846;25.950;2023-11-19T12:13:55;101260.59;;;10.12;85.44
20630;BME280;17386;43.846;25.950;2023-11-19T12:16:27;101258.34;;;9.97;87.21
20630;BME280;17386;43.846;25.950;2023-11-19T12:18:54;101246.91;;;9.94;87.66
20630;BME280;17386;43.846;25.950;2023-11-19T12:21:30;101253.22;;;9.90;85.38
20630;BME280;17386;43.846;25.950;2023-11-19T12:23:58;101247.91;;;9.90;86.58
20630;BME280;17386;43.846;25.950;2023-11-19T12:26:34;101257.72;;;9.86;86.03
20630;BME280;17386;43.846;25.950;2023-11-19T12:29:00;101259.84;;;9.72;87.33
20630;BME280;17386;43.846;25.950;2023-11-19T12:31:26;101250.03;;;9.74;88.91
20630;BME280;17386;43.846;25.950;2023-11-19T12:33:51;101256.09;;;9.80;89.29
20630;BME280;17386;43.846;25.950;2023-11-19T12:36:18;101258.53;;;9.88;88.44
20630;BME280;17386;43.846;25.950;2023-11-19T12:38:45;101256.78;;;9.89;89.30
20630;BME280;17386;43.846;25.950;2023-11-19T12:41:11;101250.56;;;9.90;87.88
20630;BME280;17386;43.846;25.950;2023-11-19T12:43:38;101240.94;;;9.85;88.48
20630;BME280;17386;43.846;25.950;2023-11-19T12:46:23;101249.56;;;9.95;88.85
20630;BME280;17386;43.846;25.950;2023-11-19T12:48:49;101246.13;;;9.90;89.86
20630;BME280;17386;43.846;25.950;2023-11-19T12:51:15;101232.16;;;9.83;89.33
20630;BME280;17386;43.846;25.950;2023-11-19T12:53:48;101233.84;;;9.86;90.13
20630;BME280;17386;43.846;25.950;2023-11-19T12:56:15;101229.53;;;9.80;90.71